Dades meteomassalio
Diari Summary for Noviembre 16, 2017 Units:  Metric    English   Both
« Previous Day
Next Day »
Diari Semanal Mensual Anual Personalitzat
  Maxima: Minima: Mijana:
Temperatura: 15.6 °C -4.4 °C 3.1 °C
Rosada: -0.3 °C -9.1 °C -5.4 °C
Humitat: 74 % 34 % 56 %
Velocitat del vent: 16.1 km/h 0.0 km/h 0.7 km/h
Racha vent: 16.1 km/h - -
Vent:- - East
Pressio: 1026.0 hPa 1023.2 hPa -
Pluja: 0.0 mm    
Historical Graphs
 
 
Tabular Data for Noviembre 16, 2017
Time Temperature Dew Point Pressure Wind Wind Speed Wind Gust Humidity Rainfall Rate (Hourly) solar Conditions
00:00 -0.6 °C -6.9 °C 1023.2 hPa Calm     62 % 0.0 mm 0.0 W/m2 CLR
00:05 -0.6 °C -7.2 °C 1023.2 hPa Calm     61 % 0.0 mm 0.0 W/m2 CLR
00:06 -0.6 °C -7.2 °C 1023.2 hPa Calm     61 % 0.0 mm 0.0 W/m2 CLR
00:11 -0.6 °C -7.4 °C 1023.2 hPa Calm     60 % 0.0 mm 0.0 W/m2 CLR
00:16 -0.6 °C -7.2 °C 1023.2 hPa Calm     61 % 0.0 mm 0.0 W/m2 CLR
00:21 -0.6 °C -6.9 °C 1023.2 hPa Calm     62 % 0.0 mm 0.0 W/m2 CLR
00:26 -0.6 °C -6.7 °C 1023.2 hPa Calm     63 % 0.0 mm 0.0 W/m2 CLR
00:31 -0.6 °C -6.7 °C 1023.2 hPa Calm     63 % 0.0 mm 0.0 W/m2 CLR
00:36 -0.6 °C -6.6 °C 1023.2 hPa Calm     64 % 0.0 mm 0.0 W/m2 CLR
00:41 -1.1 °C -7.1 °C 1023.2 hPa Calm     64 % 0.0 mm 0.0 W/m2 CLR
00:46 -1.1 °C -7.3 °C 1023.2 hPa Calm     63 % 0.0 mm 0.0 W/m2 CLR
00:51 -1.1 °C -7.1 °C 1023.2 hPa Calm     64 % 0.0 mm 0.0 W/m2 CLR
00:56 -0.6 °C -6.6 °C 1023.2 hPa Calm     64 % 0.0 mm 0.0 W/m2 CLR
01:01 -0.6 °C -6.6 °C 1023.2 hPa Calm     64 % 0.0 mm 0.0 W/m2 CLR
01:06 -0.6 °C -6.6 °C 1023.2 hPa Calm     64 % 0.0 mm 0.0 W/m2 CLR
01:11 -0.6 °C -6.6 °C 1023.2 hPa Calm     64 % 0.0 mm 0.0 W/m2 CLR
01:16 -0.6 °C -6.6 °C 1023.2 hPa Calm     64 % 0.0 mm 0.0 W/m2 CLR
01:21 -1.1 °C -7.1 °C 1023.2 hPa Calm     64 % 0.0 mm 0.0 W/m2 CLR
01:26 -0.6 °C -6.6 °C 1023.2 hPa Calm     64 % 0.0 mm 0.0 W/m2 CLR
01:31 -0.6 °C -6.6 °C 1023.2 hPa Calm     64 % 0.0 mm 0.0 W/m2 CLR
01:36 -1.1 °C -6.8 °C 1023.2 hPa Calm     65 % 0.0 mm 0.0 W/m2 CLR
01:41 -0.6 °C -6.3 °C 1023.2 hPa Calm     65 % 0.0 mm 0.0 W/m2 CLR
01:46 -0.6 °C -6.6 °C 1023.2 hPa Calm     64 % 0.0 mm 0.0 W/m2 CLR
01:56 -0.6 °C -6.6 °C 1023.6 hPa Calm     64 % 0.0 mm 0.0 W/m2 CLR
02:01 -0.6 °C -6.6 °C 1023.6 hPa Calm     64 % 0.0 mm 0.0 W/m2 CLR
02:06 -1.1 °C -7.1 °C 1023.6 hPa Calm     64 % 0.0 mm 0.0 W/m2 CLR
02:11 -1.1 °C -7.1 °C 1023.6 hPa Calm     64 % 0.0 mm 0.0 W/m2 CLR
02:16 -1.1 °C -7.1 °C 1023.6 hPa Calm     64 % 0.0 mm 0.0 W/m2 CLR
02:21 -1.1 °C -6.8 °C 1023.6 hPa Calm     65 % 0.0 mm 0.0 W/m2 CLR
02:31 -1.1 °C -6.7 °C 1023.6 hPa Calm     66 % 0.0 mm 0.0 W/m2 CLR
02:36 -1.1 °C -6.7 °C 1023.6 hPa Calm     66 % 0.0 mm 0.0 W/m2 CLR
02:37 -1.7 °C -7.0 °C 1023.6 hPa Calm     67 % 0.0 mm 0.0 W/m2 CLR
02:42 -1.7 °C -7.0 °C 1023.6 hPa Calm     67 % 0.0 mm 0.0 W/m2 CLR
02:47 -1.7 °C -7.0 °C 1023.6 hPa Calm     67 % 0.0 mm 0.0 W/m2 CLR
02:52 -2.2 °C -7.5 °C 1023.6 hPa Calm     67 % 0.0 mm 0.0 W/m2 CLR
02:57 -2.2 °C -7.5 °C 1023.6 hPa Calm     67 % 0.0 mm 0.0 W/m2 CLR
03:02 -2.2 °C -7.5 °C 1023.6 hPa Calm     67 % 0.0 mm 0.0 W/m2 CLR
03:07 -2.2 °C -7.5 °C 1023.6 hPa Calm     67 % 0.0 mm 0.0 W/m2 CLR
03:12 -2.2 °C -7.5 °C 1023.6 hPa Calm     67 % 0.0 mm 0.0 W/m2 CLR
03:17 -2.2 °C -7.5 °C 1023.6 hPa Calm     67 % 0.0 mm 0.0 W/m2 CLR
03:22 -2.2 °C -7.7 °C 1023.6 hPa Calm     66 % 0.0 mm 0.0 W/m2 CLR
03:27 -2.2 °C -7.7 °C 1023.6 hPa Calm     66 % 0.0 mm 0.0 W/m2 CLR
03:32 -2.8 °C -8.1 °C 1023.6 hPa Calm     67 % 0.0 mm 0.0 W/m2 CLR
03:37 -2.8 °C -7.9 °C 1023.6 hPa Calm     68 % 0.0 mm 0.0 W/m2 CLR
03:42 -2.8 °C -7.9 °C 1023.6 hPa Calm     68 % 0.0 mm 0.0 W/m2 CLR
03:47 -2.8 °C -7.9 °C 1023.6 hPa Calm     68 % 0.0 mm 0.0 W/m2 CLR
03:52 -2.8 °C -8.1 °C 1023.6 hPa Calm     67 % 0.0 mm 0.0 W/m2 CLR
03:57 -3.3 °C -8.6 °C 1023.6 hPa Calm     67 % 0.0 mm 0.0 W/m2 CLR
04:02 -2.8 °C -8.1 °C 1023.6 hPa Calm     67 % 0.0 mm 0.0 W/m2 CLR
04:07 -2.8 °C -8.1 °C 1023.6 hPa Calm     67 % 0.0 mm 0.0 W/m2 CLR
04:14 -2.8 °C -8.1 °C 1023.2 hPa Calm     67 % 0.0 mm 0.0 W/m2 CLR
04:19 -2.8 °C -7.9 °C 1023.2 hPa Calm     68 % 0.0 mm 0.0 W/m2 CLR
04:21 -3.3 °C -8.4 °C 1023.2 hPa Calm     68 % 0.0 mm 0.0 W/m2 CLR
04:22 -3.3 °C -8.4 °C 1023.2 hPa Calm     68 % 0.0 mm 0.0 W/m2 CLR
04:27 -3.3 °C -8.4 °C 1023.2 hPa Calm     68 % 0.0 mm 0.0 W/m2 CLR
04:32 -3.3 °C -8.4 °C 1023.2 hPa Calm     68 % 0.0 mm 0.0 W/m2 CLR
04:37 -2.8 °C -8.1 °C 1023.2 hPa Calm     67 % 0.0 mm 0.0 W/m2 CLR
04:42 -3.3 °C -8.6 °C 1023.6 hPa Calm     67 % 0.0 mm 0.0 W/m2 CLR
04:47 -3.3 °C -8.4 °C 1023.6 hPa Calm     68 % 0.0 mm 0.0 W/m2 CLR
04:52 -3.3 °C -8.4 °C 1023.2 hPa Calm     68 % 0.0 mm 0.0 W/m2 CLR
04:57 -3.3 °C -8.4 °C 1023.2 hPa Calm     68 % 0.0 mm 0.0 W/m2 CLR
05:02 -3.3 °C -8.2 °C 1023.2 hPa Calm     69 % 0.0 mm 0.0 W/m2 CLR
05:07 -3.3 °C -8.2 °C 1023.6 hPa Calm     69 % 0.0 mm 0.0 W/m2 CLR
05:12 -3.9 °C -8.7 °C 1023.2 hPa Calm     69 % 0.0 mm 0.0 W/m2 CLR
05:17 -3.9 °C -8.7 °C 1023.6 hPa Calm     69 % 0.0 mm 0.0 W/m2 CLR
05:22 -3.9 °C -8.7 °C 1023.6 hPa Calm     69 % 0.0 mm 0.0 W/m2 CLR
05:27 -3.9 °C -8.7 °C 1023.6 hPa Calm     69 % 0.0 mm 0.0 W/m2 CLR
05:32 -3.9 °C -8.7 °C 1023.6 hPa Calm     69 % 0.0 mm 0.0 W/m2 CLR
05:37 -3.9 °C -8.7 °C 1023.6 hPa Calm     69 % 0.0 mm 0.0 W/m2 CLR
05:42 -3.9 °C -8.7 °C 1023.6 hPa Calm     69 % 0.0 mm 0.0 W/m2 CLR
05:47 -3.9 °C -8.7 °C 1023.6 hPa Calm     69 % 0.0 mm 0.0 W/m2 CLR
05:52 -3.9 °C -8.7 °C 1023.6 hPa Calm     69 % 0.0 mm 0.0 W/m2 CLR
05:57 -3.3 °C -8.0 °C 1023.6 hPa Calm     70 % 0.0 mm 0.0 W/m2 CLR
06:02 -3.3 °C -8.0 °C 1023.6 hPa Calm     70 % 0.0 mm 0.0 W/m2 CLR
06:07 -3.3 °C -8.0 °C 1023.6 hPa Calm     70 % 0.0 mm 0.0 W/m2 CLR
06:12 -3.9 °C -8.4 °C 1023.6 hPa Calm     71 % 0.0 mm 0.0 W/m2 CLR
06:17 -3.9 °C -8.4 °C 1023.6 hPa Calm     71 % 0.0 mm 0.0 W/m2 CLR
06:22 -3.9 °C -8.4 °C 1023.6 hPa Calm     71 % 0.0 mm 0.0 W/m2 CLR
06:27 -3.9 °C -8.4 °C 1023.6 hPa Calm     71 % 0.0 mm 0.0 W/m2 CLR
06:32 -3.9 °C -8.4 °C 1023.6 hPa Calm     71 % 0.0 mm 0.0 W/m2 CLR
06:37 -4.4 °C -8.9 °C 1023.6 hPa Calm     71 % 0.0 mm 0.0 W/m2 CLR
06:43 -4.4 °C -8.7 °C 1023.9 hPa Calm     72 % 0.0 mm 0.0 W/m2 CLR
06:48 -4.4 °C -8.7 °C 1023.9 hPa Calm     72 % 0.0 mm 0.0 W/m2 CLR
06:49 -4.4 °C -8.7 °C 1023.9 hPa Calm     72 % 0.0 mm 0.0 W/m2 CLR
06:54 -3.9 °C -8.2 °C 1023.9 hPa Calm     72 % 0.0 mm 0.0 W/m2 CLR
06:59 -3.9 °C -8.2 °C 1023.9 hPa Calm     72 % 0.0 mm 0.0 W/m2 CLR
07:04 -4.4 °C -8.7 °C 1023.9 hPa Calm     72 % 0.0 mm 0.0 W/m2 CLR
07:09 -4.4 °C -8.6 °C 1023.9 hPa Calm     73 % 0.0 mm 0.0 W/m2 CLR
07:19 -4.4 °C -8.6 °C 1024.3 hPa Calm     73 % 0.0 mm 0.0 W/m2 CLR
07:24 -4.4 °C -8.4 °C 1024.3 hPa Calm     74 % 0.0 mm 0.0 W/m2 CLR
07:29 -4.4 °C -8.6 °C 1024.3 hPa Calm     73 % 0.0 mm 0.0 W/m2 CLR
07:34 -4.4 °C -8.4 °C 1024.3 hPa Calm     74 % 0.0 mm 0.0 W/m2 CLR
07:39 -3.9 °C -8.0 °C 1024.3 hPa Calm     73 % 0.0 mm 0.0 W/m2 OVC
07:44 -3.9 °C -8.0 °C 1024.3 hPa Calm     73 % 0.0 mm 0.0 W/m2 OVC
07:49 -3.9 °C -8.2 °C 1024.3 hPa Calm     72 % 0.0 mm 5.0 W/m2 OVC
07:54 -4.4 °C -8.7 °C 1024.3 hPa Calm     72 % 0.0 mm 7.0 W/m2 OVC
07:59 -4.4 °C -8.6 °C 1024.3 hPa Calm     73 % 0.0 mm 11.0 W/m2 OVC
08:04 -4.4 °C -8.6 °C 1024.6 hPa Calm     73 % 0.0 mm 12.0 W/m2 OVC
08:09 -4.4 °C -8.6 °C 1024.6 hPa Calm     73 % 0.0 mm 14.0 W/m2 OVC
08:14 -4.4 °C -8.6 °C 1024.6 hPa Calm     73 % 0.0 mm 16.0 W/m2 OVC
08:19 -3.9 °C -8.0 °C 1024.6 hPa Calm     73 % 0.0 mm 25.0 W/m2 OVC
08:24 -3.9 °C -8.2 °C 1024.6 hPa Calm     72 % 0.0 mm 37.0 W/m2 OVC
08:29 -3.9 °C -8.2 °C 1024.6 hPa Calm     72 % 0.0 mm 46.0 W/m2 OVC
08:34 -3.9 °C -8.4 °C 1024.6 hPa Calm     71 % 0.0 mm 49.0 W/m2 OVC
08:39 -3.9 °C -8.4 °C 1024.6 hPa Calm     71 % 0.0 mm 60.0 W/m2 OVC
08:44 -3.9 °C -8.6 °C 1024.9 hPa Calm     70 % 0.0 mm 79.0 W/m2 OVC
08:49 -3.9 °C -8.9 °C 1024.9 hPa Calm     68 % 0.0 mm 93.0 W/m2 BKN
08:54 -3.9 °C -9.1 °C 1024.9 hPa Calm     67 % 0.0 mm 105.0 W/m2 SCT
08:59 -3.9 °C -9.1 °C 1024.9 hPa Calm     67 % 0.0 mm 116.0 W/m2 CLR
09:04 -3.3 °C -8.8 °C 1024.9 hPa Calm     66 % 0.0 mm 132.0 W/m2 CLR
09:09 -2.8 °C -8.4 °C 1024.9 hPa Calm     65 % 0.0 mm 151.0 W/m2 CLR
09:14 -2.8 °C -8.4 °C 1024.9 hPa Calm     65 % 0.0 mm 105.0 W/m2 CLR
09:19 -2.2 °C -8.1 °C 1024.9 hPa Calm     64 % 0.0 mm 183.0 W/m2 CLR
09:24 -2.2 °C -8.3 °C 1025.3 hPa Calm     63 % 0.0 mm 172.0 W/m2 CLR
09:29 -1.7 °C -8.0 °C 1024.9 hPa Calm     62 % 0.0 mm 206.0 W/m2 CLR
09:34 -1.7 °C -8.2 °C 1024.9 hPa Calm     61 % 0.0 mm 229.0 W/m2 CLR
09:39 -1.1 °C -8.1 °C 1025.3 hPa Calm     59 % 0.0 mm 243.0 W/m2 CLR
09:44 -0.6 °C -7.8 °C 1025.3 hPa Calm     58 % 0.0 mm 257.0 W/m2 CLR
09:49 0.0 °C -7.5 °C 1025.3 hPa Calm     57 % 0.0 mm 269.0 W/m2 CLR
09:54 0.0 °C -7.7 °C 1025.3 hPa Calm     56 % 0.0 mm 279.0 W/m2 CLR
09:59 1.1 °C -6.7 °C 1025.3 hPa Calm     56 % 0.0 mm 290.0 W/m2 CLR
10:04 1.7 °C -6.9 °C 1025.3 hPa Calm     53 % 0.0 mm 302.0 W/m2 CLR
10:09 2.8 °C -6.1 °C 1025.3 hPa Calm     52 % 0.0 mm 315.0 W/m2 CLR
10:14 3.3 °C -5.6 °C 1025.3 hPa Calm     52 % 0.0 mm 325.0 W/m2 CLR
10:19 3.9 °C -5.3 °C 1025.3 hPa Calm     51 % 0.0 mm 336.0 W/m2 CLR
10:24 3.9 °C -5.3 °C 1025.3 hPa Calm     51 % 0.0 mm 346.0 W/m2 CLR
10:29 4.4 °C -4.8 °C 1025.6 hPa Calm     51 % 0.0 mm 357.0 W/m2 CLR
10:34 5.6 °C -4.1 °C 1025.6 hPa Calm     50 % 0.0 mm 369.0 W/m2 CLR
10:39 6.1 °C -4.1 °C 1025.6 hPa Calm     48 % 0.0 mm 380.0 W/m2 CLR
10:44 6.1 °C -4.4 °C 1025.6 hPa Calm     47 % 0.0 mm 387.0 W/m2 CLR
10:49 7.2 °C -3.3 °C 1026.0 hPa Calm     47 % 0.0 mm 396.0 W/m2 CLR
10:54 7.2 °C -3.3 °C 1025.6 hPa Calm     47 % 0.0 mm 404.0 W/m2 CLR
10:59 8.3 °C -2.6 °C 1025.6 hPa Calm     46 % 0.0 mm 413.0 W/m2 CLR
11:09 8.9 °C -3.1 °C 1026.0 hPa ESE 3.7 km/h 3.7 km/h 43 % 0.0 mm 429.0 W/m2 CLR
11:14 8.9 °C -2.7 °C 1026.0 hPa ESE 1.6 km/h 1.6 km/h 44 % 0.0 mm 436.0 W/m2 CLR
11:20 8.9 °C -2.7 °C 1026.0 hPa East 1.9 km/h 1.9 km/h 44 % 0.0 mm 443.0 W/m2 CLR
11:25 9.4 °C -2.5 °C 1026.0 hPa East 3.7 km/h 3.7 km/h 43 % 0.0 mm 454.0 W/m2 CLR
11:30 9.4 °C -2.5 °C 1026.0 hPa East 3.7 km/h 3.7 km/h 43 % 0.0 mm 455.0 W/m2 CLR
11:35 10.0 °C -2.0 °C 1026.0 hPa East 3.7 km/h 3.7 km/h 43 % 0.0 mm 457.0 W/m2 CLR
11:40 10.0 °C -2.0 °C 1026.0 hPa ENE 3.7 km/h 3.7 km/h 43 % 0.0 mm 459.0 W/m2 CLR
11:45 10.0 °C -2.0 °C 1025.6 hPa Calm     43 % 0.0 mm 471.0 W/m2 CLR
11:50 10.0 °C -2.0 °C 1025.6 hPa East 7.4 km/h 7.4 km/h 43 % 0.0 mm 476.0 W/m2 CLR
11:55 10.0 °C -2.3 °C 1025.6 hPa ENE 7.4 km/h 7.4 km/h 42 % 0.0 mm 482.0 W/m2 CLR
12:00 10.6 °C -1.8 °C 1025.6 hPa East 5.6 km/h   42 % 0.0 mm 485.0 W/m2 CLR
12:05 10.6 °C -1.8 °C 1025.6 hPa East 1.9 km/h   42 % 0.0 mm 487.0 W/m2 CLR
12:10 10.6 °C -1.8 °C 1025.6 hPa East 1.9 km/h 1.9 km/h 42 % 0.0 mm 492.0 W/m2 CLR
12:15 11.1 °C -1.7 °C 1025.3 hPa East 9.3 km/h 9.3 km/h 41 % 0.0 mm 494.0 W/m2 CLR
12:20 11.1 °C -1.3 °C 1025.3 hPa ENE 1.9 km/h 1.9 km/h 42 % 0.0 mm 497.0 W/m2 CLR
12:25 11.7 °C -1.5 °C 1025.3 hPa ENE 3.7 km/h   40 % 0.0 mm 494.0 W/m2 CLR
12:30 11.7 °C -1.5 °C 1025.3 hPa East 1.9 km/h   40 % 0.0 mm 497.0 W/m2 CLR
12:35 11.7 °C -1.5 °C 1024.9 hPa ENE 3.2 km/h 3.2 km/h 40 % 0.0 mm 501.0 W/m2 CLR
12:40 12.2 °C -1.0 °C 1024.9 hPa ENE 1.6 km/h 1.6 km/h 40 % 0.0 mm 503.0 W/m2 CLR
12:45 12.8 °C -0.8 °C 1024.6 hPa East 3.2 km/h 3.2 km/h 39 % 0.0 mm 503.0 W/m2 CLR
12:50 12.8 °C -0.8 °C 1024.6 hPa East 3.2 km/h 3.2 km/h 39 % 0.0 mm 504.0 W/m2 CLR
12:55 12.8 °C -1.2 °C 1024.6 hPa East 3.7 km/h 3.7 km/h 38 % 0.0 mm 503.0 W/m2 CLR
13:00 12.8 °C -1.2 °C 1024.6 hPa Calm     38 % 0.0 mm 501.0 W/m2 CLR
13:05 12.8 °C -1.2 °C 1024.6 hPa East 3.7 km/h 3.7 km/h 38 % 0.0 mm 503.0 W/m2 CLR
13:10 13.3 °C -0.7 °C 1024.6 hPa ENE 1.9 km/h 1.9 km/h 38 % 0.0 mm 501.0 W/m2 CLR
13:15 13.3 °C -1.1 °C 1024.6 hPa ENE 16.1 km/h 16.1 km/h 37 % 0.0 mm 499.0 W/m2 CLR
13:20 13.3 °C -1.1 °C 1024.6 hPa East 1.9 km/h 1.9 km/h 37 % 0.0 mm 497.0 W/m2 CLR
13:25 13.9 °C -0.6 °C 1024.3 hPa East 14.8 km/h   37 % 0.0 mm 496.0 W/m2 CLR
13:30 13.3 °C -1.1 °C 1024.3 hPa ESE 3.7 km/h   37 % 0.0 mm 494.0 W/m2 CLR
13:35 13.3 °C -1.1 °C 1024.3 hPa ESE 1.9 km/h   37 % 0.0 mm 483.0 W/m2 CLR
13:40 13.9 °C -0.6 °C 1024.3 hPa Calm     37 % 0.0 mm 492.0 W/m2 CLR
13:45 13.3 °C -1.1 °C 1024.3 hPa ENE 1.9 km/h   37 % 0.0 mm 492.0 W/m2 CLR
13:50 13.9 °C -0.9 °C 1024.3 hPa ESE 1.9 km/h 1.9 km/h 36 % 0.0 mm 494.0 W/m2 CLR
13:55 13.9 °C -0.9 °C 1024.3 hPa ESE 3.7 km/h 3.7 km/h 36 % 0.0 mm 482.0 W/m2 CLR
14:00 14.4 °C -0.4 °C 1023.9 hPa SE 1.6 km/h 1.6 km/h 36 % 0.0 mm 424.0 W/m2 CLR
14:05 13.9 °C -0.9 °C 1023.9 hPa ESE 1.9 km/h 1.9 km/h 36 % 0.0 mm 464.0 W/m2 CLR
14:10 13.9 °C -0.9 °C 1023.9 hPa East 1.9 km/h 1.9 km/h 36 % 0.0 mm 425.0 W/m2 CLR
14:15 13.9 °C -0.9 °C 1023.9 hPa Calm     36 % 0.0 mm 323.0 W/m2 CLR
14:20 13.9 °C -1.3 °C 1023.9 hPa Calm     35 % 0.0 mm 304.0 W/m2 CLR
14:25 14.4 °C -0.4 °C 1023.6 hPa NNE 3.7 km/h 3.7 km/h 36 % 0.0 mm 264.0 W/m2 CLR
14:30 13.9 °C -0.9 °C 1023.6 hPa NNE 1.9 km/h 1.9 km/h 36 % 0.0 mm 272.0 W/m2 CLR
14:35 13.9 °C -0.9 °C 1023.9 hPa NNE 5.6 km/h 5.6 km/h 36 % 0.0 mm 353.0 W/m2 CLR
14:40 14.4 °C -0.4 °C 1023.9 hPa NNE 5.6 km/h 5.6 km/h 36 % 0.0 mm 269.0 W/m2 CLR
14:45 14.4 °C -0.4 °C 1023.6 hPa NNE 5.6 km/h 5.6 km/h 36 % 0.0 mm 408.0 W/m2 CLR
14:50 14.4 °C -0.4 °C 1023.6 hPa NNE 11.3 km/h 11.3 km/h 36 % 0.0 mm 396.0 W/m2 CLR
14:55 14.4 °C -0.8 °C 1023.6 hPa North 13.0 km/h 13.0 km/h 35 % 0.0 mm 390.0 W/m2 CLR
15:00 15.0 °C -0.3 °C 1023.6 hPa NNE 5.6 km/h 5.6 km/h 35 % 0.0 mm 338.0 W/m2 CLR
15:05 15.0 °C -0.3 °C 1023.6 hPa NNW 5.6 km/h   35 % 0.0 mm 360.0 W/m2 CLR
15:10 15.0 °C -0.3 °C 1023.6 hPa Calm     35 % 0.0 mm 348.0 W/m2 CLR
15:15 15.6 °C -0.3 °C 1023.6 hPa Calm     34 % 0.0 mm 336.0 W/m2 CLR
15:20 15.6 °C -0.3 °C 1023.6 hPa Calm     34 % 0.0 mm 322.0 W/m2 CLR
15:25 15.0 °C -0.8 °C 1023.6 hPa Calm     34 % 0.0 mm 311.0 W/m2 CLR
15:30 15.0 °C -0.8 °C 1023.6 hPa NNW 5.6 km/h   34 % 0.0 mm 301.0 W/m2 CLR
15:35 15.6 °C -0.3 °C 1023.6 hPa North 9.3 km/h 9.3 km/h 34 % 0.0 mm 288.0 W/m2 CLR
15:40 15.0 °C -0.3 °C 1023.6 hPa Calm     35 % 0.0 mm 278.0 W/m2 CLR
15:45 15.0 °C -0.8 °C 1023.6 hPa Calm     34 % 0.0 mm 262.0 W/m2 CLR
15:50 15.0 °C -0.8 °C 1023.6 hPa Calm     34 % 0.0 mm 248.0 W/m2 CLR
15:55 15.0 °C -0.8 °C 1023.6 hPa Calm     34 % 0.0 mm 230.0 W/m2 CLR
16:00 15.0 °C -0.8 °C 1023.6 hPa Calm     34 % 0.0 mm 214.0 W/m2 CLR
16:05 14.4 °C -0.8 °C 1023.6 hPa Calm     35 % 0.0 mm 202.0 W/m2 CLR
16:10 13.9 °C -1.3 °C 1023.6 hPa Calm     35 % 0.0 mm 188.0 W/m2 CLR
16:15 13.9 °C -1.3 °C 1023.6 hPa Calm     35 % 0.0 mm 172.0 W/m2 CLR
16:20 13.9 °C -1.3 °C 1023.6 hPa Calm     35 % 0.0 mm 156.0 W/m2 CLR
16:25 13.3 °C -2.2 °C 1023.6 hPa Calm     34 % 0.0 mm 142.0 W/m2 CLR
16:30 13.3 °C -1.8 °C 1023.6 hPa Calm     35 % 0.0 mm 123.0 W/m2 CLR
16:35 12.8 °C -2.3 °C 1023.6 hPa Calm     35 % 0.0 mm 111.0 W/m2 CLR
16:40 12.8 °C -2.7 °C 1023.6 hPa Calm     34 % 0.0 mm 100.0 W/m2 CLR
16:45 12.2 °C -2.8 °C 1023.6 hPa Calm     35 % 0.0 mm 83.0 W/m2 CLR
16:50 12.2 °C -2.8 °C 1023.6 hPa Calm     35 % 0.0 mm 69.0 W/m2 FEW
16:55 11.7 °C -2.9 °C 1023.6 hPa Calm     36 % 0.0 mm 65.0 W/m2 FEW
17:00 11.7 °C -2.9 °C 1023.6 hPa Calm     36 % 0.0 mm 51.0 W/m2 SCT
17:05 11.1 °C -3.4 °C 1023.6 hPa Calm     36 % 0.0 mm 40.0 W/m2 BKN
17:10 10.6 °C -3.6 °C 1023.6 hPa Calm     37 % 0.0 mm 28.0 W/m2 BKN
17:15 10.0 °C -4.1 °C 1023.6 hPa Calm     37 % 0.0 mm 19.0 W/m2 BKN
17:20 9.4 °C -4.2 °C 1023.6 hPa Calm     38 % 0.0 mm 14.0 W/m2 BKN
17:25 9.4 °C -3.8 °C 1023.9 hPa Calm     39 % 0.0 mm 12.0 W/m2 BKN
17:30 8.9 °C -4.3 °C 1023.9 hPa Calm     39 % 0.0 mm 11.0 W/m2 BKN
17:35 8.3 °C -4.5 °C 1023.6 hPa Calm     40 % 0.0 mm 7.0 W/m2 BKN
17:40 7.8 °C -4.7 °C 1023.6 hPa Calm     41 % 0.0 mm 5.0 W/m2 OVC
17:45 7.2 °C -5.2 °C 1023.9 hPa Calm     41 % 0.0 mm 5.0 W/m2 OVC
17:50 6.7 °C -5.3 °C 1023.9 hPa Calm     42 % 0.0 mm 0.0 W/m2 OVC
17:55 6.1 °C -5.9 °C 1023.9 hPa Calm     42 % 0.0 mm 0.0 W/m2 CLR
18:00 6.1 °C -5.9 °C 1023.9 hPa Calm     42 % 0.0 mm 0.0 W/m2 CLR
18:05 6.1 °C -5.9 °C 1023.9 hPa Calm     42 % 0.0 mm 0.0 W/m2 CLR
18:10 7.2 °C -4.6 °C 1023.9 hPa Calm     43 % 0.0 mm 0.0 W/m2 CLR
18:15 6.7 °C -4.7 °C 1023.9 hPa Calm     44 % 0.0 mm 0.0 W/m2 CLR
18:20 6.7 °C -4.4 °C 1023.9 hPa Calm     45 % 0.0 mm 0.0 W/m2 CLR
18:25 6.7 °C -4.2 °C 1023.9 hPa Calm     46 % 0.0 mm 0.0 W/m2 CLR
18:30 6.1 °C -4.4 °C 1023.9 hPa Calm     47 % 0.0 mm 0.0 W/m2 CLR
18:35 5.6 °C -4.6 °C 1023.9 hPa Calm     48 % 0.0 mm 0.0 W/m2 CLR
18:40 5.6 °C -4.3 °C 1023.9 hPa Calm     49 % 0.0 mm 0.0 W/m2 CLR
18:45 5.6 °C -4.3 °C 1023.9 hPa Calm     49 % 0.0 mm 0.0 W/m2 CLR
18:50 5.6 °C -4.3 °C 1024.3 hPa Calm     49 % 0.0 mm 0.0 W/m2 CLR
18:55 5.0 °C -4.6 °C 1024.3 hPa Calm     50 % 0.0 mm 0.0 W/m2 CLR
19:00 4.4 °C -4.6 °C 1024.3 hPa Calm     52 % 0.0 mm 0.0 W/m2 CLR
19:05 4.4 °C -4.3 °C 1024.3 hPa Calm     53 % 0.0 mm 0.0 W/m2 CLR
19:10 3.9 °C -4.8 °C 1024.3 hPa Calm     53 % 0.0 mm 0.0 W/m2 CLR
19:15 3.3 °C -5.3 °C 1024.3 hPa Calm     53 % 0.0 mm 0.0 W/m2 CLR
19:20 3.3 °C -5.3 °C 1024.3 hPa Calm     53 % 0.0 mm 0.0 W/m2 CLR
19:25 2.8 °C -5.9 °C 1024.3 hPa Calm     53 % 0.0 mm 0.0 W/m2 CLR
19:30 2.8 °C -5.6 °C 1024.3 hPa Calm     54 % 0.0 mm 0.0 W/m2 CLR
19:35 2.2 °C -5.9 °C 1024.3 hPa Calm     55 % 0.0 mm 0.0 W/m2 CLR
19:40 2.2 °C -5.9 °C 1024.6 hPa Calm     55 % 0.0 mm 0.0 W/m2 CLR
19:45 1.7 °C -6.2 °C 1024.6 hPa Calm     56 % 0.0 mm 0.0 W/m2 CLR
19:50 1.7 °C -6.2 °C 1024.6 hPa Calm     56 % 0.0 mm 0.0 W/m2 CLR
19:51 1.7 °C -6.2 °C 1024.6 hPa Calm     56 % 0.0 mm 0.0 W/m2 CLR
19:56 1.7 °C -6.2 °C 1024.6 hPa Calm     56 % 0.0 mm 0.0 W/m2 CLR
20:01 2.2 °C -5.4 °C 1024.6 hPa Calm     57 % 0.0 mm 0.0 W/m2 CLR
20:06 2.8 °C -4.9 °C 1024.6 hPa Calm     57 % 0.0 mm 0.0 W/m2 CLR
20:11 2.8 °C -4.7 °C 1024.6 hPa Calm     58 % 0.0 mm 0.0 W/m2 CLR
20:16 2.8 °C -4.7 °C 1024.6 hPa Calm     58 % 0.0 mm 0.0 W/m2 CLR
20:21 2.2 °C -5.2 °C 1024.6 hPa Calm     58 % 0.0 mm 0.0 W/m2 CLR
20:26 2.2 °C -5.0 °C 1024.6 hPa Calm     59 % 0.0 mm 0.0 W/m2 CLR
20:31 1.7 °C -5.5 °C 1024.6 hPa Calm     59 % 0.0 mm 0.0 W/m2 CLR
20:36 1.1 °C -6.0 °C 1024.6 hPa Calm     59 % 0.0 mm 0.0 W/m2 CLR
20:41 1.1 °C -6.0 °C 1024.6 hPa Calm     59 % 0.0 mm 0.0 W/m2 CLR
20:46 0.6 °C -6.3 °C 1024.6 hPa Calm     60 % 0.0 mm 0.0 W/m2 CLR
20:51 0.6 °C -6.3 °C 1024.6 hPa Calm     60 % 0.0 mm 0.0 W/m2 CLR
20:56 0.0 °C -6.6 °C 1024.9 hPa Calm     61 % 0.0 mm 0.0 W/m2 CLR
21:01 0.0 °C -6.6 °C 1024.9 hPa Calm     61 % 0.0 mm 0.0 W/m2 CLR
21:06 0.0 °C -6.4 °C 1024.9 hPa Calm     62 % 0.0 mm 0.0 W/m2 CLR
21:11 0.0 °C -6.4 °C 1024.9 hPa Calm     62 % 0.0 mm 0.0 W/m2 CLR
21:16 0.0 °C -6.4 °C 1024.6 hPa Calm     62 % 0.0 mm 0.0 W/m2 CLR
21:21 0.0 °C -6.2 °C 1024.9 hPa Calm     63 % 0.0 mm 0.0 W/m2 CLR
21:26 -0.6 °C -6.6 °C 1024.9 hPa Calm     64 % 0.0 mm 0.0 W/m2 CLR
21:31 -0.6 °C -6.6 °C 1024.6 hPa Calm     64 % 0.0 mm 0.0 W/m2 CLR
21:36 -0.6 °C -6.6 °C 1024.6 hPa Calm     64 % 0.0 mm 0.0 W/m2 CLR
21:41 0.0 °C -5.8 °C 1024.9 hPa Calm     65 % 0.0 mm 0.0 W/m2 CLR
21:46 0.0 °C -5.8 °C 1024.9 hPa Calm     65 % 0.0 mm 0.0 W/m2 CLR
21:51 0.6 °C -5.5 °C 1024.9 hPa Calm     64 % 0.0 mm 0.0 W/m2 CLR
21:56 0.6 °C -5.5 °C 1024.9 hPa Calm     64 % 0.0 mm 0.0 W/m2 CLR
22:01 0.6 °C -5.5 °C 1024.9 hPa Calm     64 % 0.0 mm 0.0 W/m2 CLR
22:06 0.6 °C -5.3 °C 1024.9 hPa Calm     65 % 0.0 mm 0.0 W/m2 CLR
22:11 0.6 °C -5.1 °C 1024.9 hPa Calm     66 % 0.0 mm 0.0 W/m2 CLR
22:16 0.6 °C -5.3 °C 1024.9 hPa Calm     65 % 0.0 mm 0.0 W/m2 CLR
22:21 0.6 °C -5.1 °C 1024.9 hPa Calm     66 % 0.0 mm 0.0 W/m2 CLR
22:26 0.6 °C -5.1 °C 1025.3 hPa Calm     66 % 0.0 mm 0.0 W/m2 CLR
22:31 0.0 °C -5.6 °C 1024.9 hPa Calm     66 % 0.0 mm 0.0 W/m2 CLR
22:36 0.0 °C -5.4 °C 1024.9 hPa Calm     67 % 0.0 mm 0.0 W/m2 CLR
22:41 0.0 °C -5.2 °C 1024.9 hPa Calm     68 % 0.0 mm 0.0 W/m2 CLR
22:46 0.0 °C -5.2 °C 1024.9 hPa Calm     68 % 0.0 mm 0.0 W/m2 CLR
22:51 0.0 °C -5.2 °C 1024.9 hPa Calm     68 % 0.0 mm 0.0 W/m2 CLR
22:56 -0.6 °C -5.7 °C 1024.9 hPa Calm     68 % 0.0 mm 0.0 W/m2 CLR
23:01 -0.6 °C -5.7 °C 1024.9 hPa Calm     68 % 0.0 mm 0.0 W/m2 CLR
23:06 -0.6 °C -5.6 °C 1024.9 hPa Calm     69 % 0.0 mm 0.0 W/m2 CLR
23:11 -0.6 °C -5.6 °C 1024.9 hPa Calm     69 % 0.0 mm 0.0 W/m2 CLR
23:16 -0.6 °C -5.6 °C 1024.9 hPa Calm     69 % 0.0 mm 0.0 W/m2 CLR
23:21 -0.6 °C -5.3 °C 1025.3 hPa Calm     70 % 0.0 mm 0.0 W/m2 CLR
23:26 -1.1 °C -5.9 °C 1025.3 hPa Calm     70 % 0.0 mm 0.0 W/m2 CLR
23:31 -0.6 °C -5.3 °C 1025.3 hPa Calm     70 % 0.0 mm 0.0 W/m2 CLR
23:36 0.0 °C -4.8 °C 1025.3 hPa Calm     70 % 0.0 mm 0.0 W/m2 CLR
23:41 0.0 °C -4.6 °C 1025.3 hPa Calm     71 % 0.0 mm 0.0 W/m2 CLR
23:46 -0.6 °C -5.3 °C 1025.3 hPa Calm     70 % 0.0 mm 0.0 W/m2 CLR
23:56 -0.6 °C -5.6 °C 1025.3 hPa Calm     69 % 0.0 mm 0.0 W/m2 CLR
Lo Temps de Massalio
Compliments of Weather Underground - 1.25 mb